createdAt,value
2023-12-10T00:02:02.580Z,99541.50
2023-12-10T00:04:29.590Z,99542.78
2023-12-10T00:06:53.909Z,99538.59
2023-12-10T00:09:17.663Z,99528.78
2023-12-10T00:11:41.486Z,99544.75
2023-12-10T00:14:05.321Z,99534.00
2023-12-10T00:16:30.535Z,99519.00
2023-12-10T00:18:54.328Z,99537.38
2023-12-10T00:21:18.196Z,99529.03
2023-12-10T00:23:41.982Z,99523.34
2023-12-10T00:26:06.267Z,99527.72
2023-12-10T00:28:29.945Z,99535.34
2023-12-10T00:30:53.899Z,99527.44
2023-12-10T00:33:19.156Z,99552.78
2023-12-10T00:35:43.068Z,99533.22
2023-12-10T00:38:06.922Z,99536.66
2023-12-10T00:40:30.695Z,99538.28
2023-12-10T00:42:54.475Z,99537.50
2023-12-10T00:45:18.298Z,99535.19
2023-12-10T00:47:42.144Z,99530.28
2023-12-10T00:50:09.431Z,99541.88
2023-12-10T00:52:33.155Z,99530.84
2023-12-10T00:54:56.918Z,99535.41
2023-12-10T00:57:20.680Z,99533.72
2023-12-10T00:59:44.616Z,99525.25
2023-12-10T01:02:08.370Z,99528.31
2023-12-10T01:04:31.186Z,99526.47
2023-12-10T01:06:56.502Z,99520.03
2023-12-10T01:09:20.281Z,99516.34
2023-12-10T01:11:44.358Z,99513.22
2023-12-10T01:14:08.194Z,99515.88
2023-12-10T01:16:31.932Z,99524.31
2023-12-10T01:18:55.781Z,99513.56
2023-12-10T01:21:19.521Z,99516.50
2023-12-10T01:23:44.699Z,99525.09
2023-12-10T01:26:11.277Z,99519.91
2023-12-10T01:28:35.541Z,99521.78
2023-12-10T01:30:59.277Z,99524.50
2023-12-10T01:33:23.253Z,99519.31
2023-12-10T01:35:47.234Z,99534.06
2023-12-10T01:38:11.928Z,99535.81
2023-12-10T01:40:37.048Z,99533.03
2023-12-10T01:43:00.796Z,99541.47
2023-12-10T01:45:24.511Z,99551.06
2023-12-10T01:47:51.691Z,99556.94
2023-12-10T01:50:16.902Z,99564.50
2023-12-10T01:52:42.460Z,99553.00
2023-12-10T01:55:09.058Z,99559.69
2023-12-10T01:57:35.735Z,99563.63
2023-12-10T02:00:00.791Z,99557.63
2023-12-10T02:02:25.338Z,99550.59
2023-12-10T02:04:49.444Z,99538.88
2023-12-10T02:07:13.326Z,99539.38
2023-12-10T02:09:37.721Z,99544.56
2023-12-10T02:12:02.470Z,99539.88
2023-12-10T02:14:27.574Z,99537.34
2023-12-10T02:16:51.352Z,99550.91
2023-12-10T02:19:15.247Z,99554.75
2023-12-10T02:21:44.356Z,99555.91
2023-12-10T02:24:12.561Z,99559.06
2023-12-10T02:26:38.526Z,99557.06
2023-12-10T02:29:02.660Z,99560.19
2023-12-10T02:31:27.061Z,99566.78
2023-12-10T02:33:50.892Z,99559.59
2023-12-10T02:36:14.785Z,99559.38
2023-12-10T02:38:38.556Z,99558.03
2023-12-10T02:41:02.362Z,99561.16
2023-12-10T02:43:27.450Z,99567.63
2023-12-10T02:45:51.259Z,99567.53
2023-12-10T02:48:15.387Z,99561.78
2023-12-10T02:50:39.294Z,99555.59
2023-12-10T02:53:03.106Z,99559.44
2023-12-10T02:55:27.028Z,99562.84
2023-12-10T02:57:50.995Z,99561.03
2023-12-10T03:00:17.663Z,99560.84
2023-12-10T03:02:41.595Z,99559.91
2023-12-10T03:05:06.263Z,99569.78
2023-12-10T03:07:30.155Z,99570.59
2023-12-10T03:09:54.429Z,99567.16
2023-12-10T03:12:18.407Z,99573.41
2023-12-10T03:14:42.728Z,99574.75
2023-12-10T03:17:07.937Z,99582.25
2023-12-10T03:19:31.929Z,99590.94
2023-12-10T03:21:55.715Z,99587.75
2023-12-10T03:24:19.680Z,99601.34
2023-12-10T03:26:43.528Z,99604.31
2023-12-10T03:29:07.368Z,99597.75
2023-12-10T03:31:31.120Z,99601.03
2023-12-10T03:33:56.366Z,99599.16
2023-12-10T03:36:20.831Z,99597.22
2023-12-10T03:38:44.746Z,99604.63
2023-12-10T03:41:08.597Z,99607.88
2023-12-10T03:43:32.420Z,99603.88
2023-12-10T03:45:56.232Z,99605.78
2023-12-10T03:48:20.123Z,99600.34
2023-12-10T03:50:45.316Z,99605.41
2023-12-10T03:53:09.169Z,99608.44
2023-12-10T03:55:32.931Z,99612.88
2023-12-10T03:57:56.871Z,99617.41
2023-12-10T04:00:21.692Z,99619.25
2023-12-10T04:02:45.534Z,99617.97
2023-12-10T04:05:13.550Z,99622.59
2023-12-10T04:07:39.052Z,99624.91
2023-12-10T04:10:03.396Z,99623.72
2023-12-10T04:12:27.348Z,99617.75
2023-12-10T04:14:51.343Z,99620.00
2023-12-10T04:17:15.231Z,99624.88
2023-12-10T04:19:39.316Z,99620.13
2023-12-10T04:22:03.159Z,99629.41
2023-12-10T04:24:28.518Z,99626.56
2023-12-10T04:26:52.577Z,99630.69
2023-12-10T04:29:16.399Z,99625.38
2023-12-10T04:31:40.467Z,99630.91
2023-12-10T04:34:04.356Z,99641.50
2023-12-10T04:36:28.243Z,99637.59
2023-12-10T04:38:51.958Z,99638.78
2023-12-10T04:41:17.197Z,99638.63
2023-12-10T04:43:41.598Z,99640.06
2023-12-10T04:46:05.988Z,99642.94
2023-12-10T04:48:29.967Z,99637.00
2023-12-10T04:50:53.961Z,99636.91
2023-12-10T04:53:18.192Z,99638.53
2023-12-10T04:55:42.116Z,99634.44
2023-12-10T04:58:07.225Z,99640.31
2023-12-10T05:00:31.166Z,99631.66
2023-12-10T05:02:55.155Z,99643.16
2023-12-10T05:05:19.483Z,99652.06
2023-12-10T05:07:43.336Z,99656.72
2023-12-10T05:10:08.448Z,99649.78
2023-12-10T05:12:32.487Z,99651.91
2023-12-10T05:14:58.315Z,99656.94
2023-12-10T05:17:22.031Z,99665.50
2023-12-10T05:19:46.455Z,99665.56
2023-12-10T05:22:10.278Z,99678.03
2023-12-10T05:24:34.157Z,99679.75
2023-12-10T05:26:57.901Z,99688.22
2023-12-10T05:29:21.740Z,99681.81
2023-12-10T05:31:46.820Z,99680.94
2023-12-10T05:34:10.932Z,99684.47
2023-12-10T05:36:34.736Z,99687.50
2023-12-10T05:38:58.498Z,99700.34
2023-12-10T05:41:22.196Z,99692.28
2023-12-10T05:43:45.935Z,99688.56
2023-12-10T05:46:10.555Z,99682.72
2023-12-10T05:48:36.025Z,99702.25
2023-12-10T05:51:00.011Z,99687.72
2023-12-10T05:53:23.853Z,99695.25
2023-12-10T05:55:47.703Z,99698.47
2023-12-10T05:58:11.493Z,99704.69
2023-12-10T06:00:35.333Z,99708.81
2023-12-10T06:02:59.193Z,99710.34
2023-12-10T06:05:24.342Z,99704.41
2023-12-10T06:07:48.154Z,99713.75
2023-12-10T06:10:13.735Z,99707.97
2023-12-10T06:12:37.711Z,99716.88
2023-12-10T06:15:01.466Z,99722.25
2023-12-10T06:17:25.266Z,99716.69
2023-12-10T06:19:49.003Z,99717.47
2023-12-10T06:22:14.338Z,99716.09
2023-12-10T06:24:38.082Z,99715.09
2023-12-10T06:27:01.836Z,99729.19
2023-12-10T06:29:25.687Z,99730.91
2023-12-10T06:31:49.443Z,99728.34
2023-12-10T06:34:13.331Z,99737.56
2023-12-10T06:36:37.631Z,99739.50
2023-12-10T06:39:02.730Z,99754.84
2023-12-10T06:41:26.512Z,99751.94
2023-12-10T06:43:50.199Z,99755.66
2023-12-10T06:46:14.494Z,99760.66
2023-12-10T06:48:38.661Z,99751.19
2023-12-10T06:51:04.602Z,99749.63
2023-12-10T06:53:28.312Z,99753.69
2023-12-10T06:55:53.502Z,99758.94
2023-12-10T06:58:17.264Z,99764.41
2023-12-10T07:00:41.191Z,99765.94
2023-12-10T07:03:05.066Z,99762.66
2023-12-10T07:05:28.892Z,99764.25
2023-12-10T07:07:52.611Z,99760.25
2023-12-10T07:10:16.442Z,99769.44
2023-12-10T07:12:41.666Z,99765.88
2023-12-10T07:15:06.778Z,99772.03
2023-12-10T07:17:30.598Z,99770.38
2023-12-10T07:19:54.517Z,99781.56
2023-12-10T07:22:18.295Z,99781.97
2023-12-10T07:24:42.092Z,99786.88
2023-12-10T07:27:06.357Z,99785.75
2023-12-10T07:29:31.517Z,99788.03
2023-12-10T07:31:55.239Z,99787.50
2023-12-10T07:34:19.301Z,99785.69
2023-12-10T07:36:43.137Z,99782.81
2023-12-10T07:39:08.898Z,99783.75
2023-12-10T07:41:32.739Z,99783.34
2023-12-10T07:43:56.790Z,99788.88
2023-12-10T07:46:21.879Z,99783.25
2023-12-10T07:48:45.828Z,99793.47
2023-12-10T07:51:09.675Z,99797.19
2023-12-10T07:53:33.472Z,99800.06
2023-12-10T07:55:57.222Z,99804.72
2023-12-10T07:58:20.952Z,99799.19
2023-12-10T08:00:48.516Z,99810.41
2023-12-10T08:03:13.972Z,99800.84
2023-12-10T08:05:37.771Z,99804.44
2023-12-10T08:08:04.582Z,99807.09
2023-12-10T08:10:28.513Z,99807.50
2023-12-10T08:12:52.337Z,99810.44
2023-12-10T08:15:16.176Z,99810.75
2023-12-10T08:17:40.931Z,99813.91
2023-12-10T08:20:07.372Z,99824.09
2023-12-10T08:22:31.596Z,99820.97
2023-12-10T08:24:55.818Z,99827.88
2023-12-10T08:27:19.743Z,99831.53
2023-12-10T08:29:44.736Z,99834.34
2023-12-10T08:32:08.991Z,99827.69
2023-12-10T08:34:32.814Z,99835.47
2023-12-10T08:36:58.146Z,99829.59
2023-12-10T08:39:21.964Z,99821.75
2023-12-10T08:41:45.770Z,99816.41
2023-12-10T08:44:10.298Z,99834.72
2023-12-10T08:46:34.102Z,99831.22
2023-12-10T08:48:58.042Z,99838.69
2023-12-10T08:51:20.932Z,99836.56
2023-12-10T08:53:46.086Z,99836.88
2023-12-10T08:56:10.742Z,99831.03
2023-12-10T08:58:34.482Z,99840.03
2023-12-10T09:00:58.404Z,99837.16
2023-12-10T09:03:22.212Z,99836.78
2023-12-10T09:05:46.183Z,99833.75
2023-12-10T09:08:09.925Z,99841.03
2023-12-10T09:10:35.257Z,99837.63
2023-12-10T09:12:59.085Z,99845.59
2023-12-10T09:15:22.919Z,99836.84
2023-12-10T09:17:46.917Z,99840.94
2023-12-10T09:20:11.494Z,99838.31
2023-12-10T09:22:35.223Z,99845.22
2023-12-10T09:24:59.049Z,99840.34
2023-12-10T09:27:24.862Z,99844.78
2023-12-10T09:29:48.695Z,99854.66
2023-12-10T09:32:13.908Z,99852.66
2023-12-10T09:34:39.387Z,99851.91
2023-12-10T09:37:03.658Z,99859.69
2023-12-10T09:39:27.894Z,99855.19
2023-12-10T09:41:51.600Z,99859.41
2023-12-10T09:44:16.760Z,99862.06
2023-12-10T09:46:41.566Z,99864.59
2023-12-10T09:49:06.104Z,99865.47
2023-12-10T09:51:30.095Z,99871.97
2023-12-10T09:53:53.930Z,99870.28
2023-12-10T09:56:17.622Z,99862.53
2023-12-10T09:58:41.401Z,99852.25
2023-12-10T10:01:09.341Z,99860.00
2023-12-10T10:03:37.196Z,99859.34
2023-12-10T10:06:01.424Z,99862.84
2023-12-10T10:08:25.302Z,99866.19
2023-12-10T10:10:49.069Z,99863.19
2023-12-10T10:13:13.093Z,99865.13
2023-12-10T10:15:37.088Z,99863.00
2023-12-10T10:18:02.468Z,99868.34
2023-12-10T10:20:27.481Z,99868.34
2023-12-10T10:22:51.935Z,99862.13
2023-12-10T10:25:15.757Z,99869.31
2023-12-10T10:27:40.034Z,99866.84
2023-12-10T10:30:05.161Z,99866.69
2023-12-10T10:32:31.297Z,99863.28
2023-12-10T10:34:57.750Z,99870.88
2023-12-10T10:37:21.596Z,99872.28
2023-12-10T10:39:45.942Z,99868.84
2023-12-10T10:42:12.027Z,99866.56
2023-12-10T10:44:35.725Z,99857.84
2023-12-10T10:47:00.544Z,99859.66
2023-12-10T10:49:24.722Z,99865.19
2023-12-10T10:51:50.199Z,99857.72
2023-12-10T10:54:14.304Z,99864.22
2023-12-10T10:56:39.099Z,99868.50
2023-12-10T10:59:02.959Z,99859.31
2023-12-10T11:01:44.406Z,99861.97
2023-12-10T11:04:09.049Z,99863.13
2023-12-10T11:06:32.996Z,99864.44
2023-12-10T11:09:02.258Z,99862.16
2023-12-10T11:11:30.809Z,99864.94
2023-12-10T11:13:56.782Z,99866.06
2023-12-10T11:16:21.179Z,99861.41
2023-12-10T11:18:55.913Z,99854.38
2023-12-10T11:21:19.002Z,99862.06
2023-12-10T11:23:42.701Z,99854.06
2023-12-10T11:26:08.918Z,99851.25
2023-12-10T11:28:33.702Z,99854.28
2023-12-10T11:30:58.592Z,99851.59
2023-12-10T11:33:22.496Z,99853.00
2023-12-10T11:36:17.428Z,99865.41
2023-12-10T11:38:30.490Z,99857.03
2023-12-10T11:40:54.295Z,99857.16
2023-12-10T11:43:19.434Z,99855.06
2023-12-10T11:45:43.566Z,99845.00
2023-12-10T11:48:08.164Z,99843.63
2023-12-10T11:50:35.328Z,99842.97
2023-12-10T11:52:59.504Z,99847.53
2023-12-10T11:55:24.074Z,99844.06
2023-12-10T11:57:48.046Z,99843.72
2023-12-10T12:00:15.556Z,99841.88
2023-12-10T12:02:44.104Z,99843.06
2023-12-10T12:05:10.708Z,99840.16
2023-12-10T12:07:34.747Z,99837.47
2023-12-10T12:09:58.773Z,99835.84
2023-12-10T12:12:24.397Z,99841.28
2023-12-10T12:14:48.431Z,99832.88
2023-12-10T12:17:17.478Z,99832.09
2023-12-10T12:19:42.262Z,99830.38
2023-12-10T12:22:06.598Z,99816.66
2023-12-10T12:24:30.345Z,99822.72
2023-12-10T12:26:54.297Z,99815.81
2023-12-10T12:29:18.126Z,99813.75
2023-12-10T12:31:57.512Z,99811.31
2023-12-10T12:34:27.936Z,99808.03
2023-12-10T12:36:51.741Z,99806.69
2023-12-10T12:39:15.701Z,99809.41
2023-12-10T12:41:39.394Z,99818.41
2023-12-10T12:44:03.189Z,99813.31
2023-12-10T12:46:26.968Z,99814.13
2023-12-10T12:48:50.874Z,99810.09
2023-12-10T12:51:16.112Z,99811.69
2023-12-10T12:54:10.675Z,99811.91
2023-12-10T12:56:23.629Z,99815.47
2023-12-10T12:58:49.260Z,99808.47
2023-12-10T13:01:14.638Z,99816.97
2023-12-10T13:03:38.619Z,99817.50
2023-12-10T13:06:02.439Z,99816.56
2023-12-10T13:08:27.576Z,99812.66
2023-12-10T13:10:51.333Z,99816.94
2023-12-10T13:13:15.164Z,99818.06
2023-12-10T13:15:38.969Z,99813.88
2023-12-10T13:18:03.094Z,99813.47
2023-12-10T13:20:26.982Z,99817.91
2023-12-10T13:22:53.704Z,99816.31
2023-12-10T13:25:18.978Z,99811.63
2023-12-10T13:27:42.737Z,99821.16
2023-12-10T13:30:07.924Z,99815.69
2023-12-10T13:32:34.080Z,99817.94
2023-12-10T13:34:58.363Z,99821.41
2023-12-10T13:37:22.616Z,99826.31
2023-12-10T13:39:46.435Z,99819.28
2023-12-10T13:42:11.563Z,99818.59
2023-12-10T13:44:35.516Z,99816.28
2023-12-10T13:46:59.414Z,99819.34
2023-12-10T13:49:23.297Z,99828.41
2023-12-10T13:51:47.545Z,99823.31
2023-12-10T13:54:11.380Z,99825.50
2023-12-10T13:56:35.710Z,99827.94
2023-12-10T13:59:01.016Z,99832.31
2023-12-10T14:01:25.304Z,99825.81
2023-12-10T14:03:50.429Z,99828.47
2023-12-10T14:06:14.388Z,99827.69
2023-12-10T14:08:38.153Z,99830.75
2023-12-10T14:11:01.979Z,99829.16
2023-12-10T14:13:25.731Z,99839.94
2023-12-10T14:15:50.943Z,99828.88
2023-12-10T14:18:14.830Z,99839.84
2023-12-10T14:20:38.590Z,99853.91
2023-12-10T14:23:02.514Z,99851.13
2023-12-10T14:25:26.227Z,99847.00
2023-12-10T14:27:50.069Z,99840.53
2023-12-10T14:30:14.857Z,99846.50
2023-12-10T14:32:40.032Z,99851.31
2023-12-10T14:35:03.835Z,99840.88
2023-12-10T14:37:27.720Z,99855.56
2023-12-10T14:39:51.921Z,99850.22
2023-12-10T14:42:16.245Z,99860.31
2023-12-10T14:44:39.956Z,99852.25
2023-12-10T14:47:03.896Z,99859.78
2023-12-10T14:49:30.230Z,99861.03
2023-12-10T14:51:54.114Z,99856.09
2023-12-10T14:54:17.899Z,99865.28
2023-12-10T14:56:41.658Z,99861.34
2023-12-10T14:59:05.846Z,99859.06
2023-12-10T15:01:31.355Z,99858.31
2023-12-10T15:03:55.313Z,99863.44
2023-12-10T15:06:20.672Z,99866.53
2023-12-10T15:08:44.405Z,99866.31
2023-12-10T15:11:08.906Z,99876.03
2023-12-10T15:13:32.604Z,99870.28
2023-12-10T15:15:56.597Z,99869.97
2023-12-10T15:18:20.759Z,99879.03
2023-12-10T15:20:44.859Z,99874.91
2023-12-10T15:23:10.098Z,99881.03
2023-12-10T15:25:34.172Z,99875.84
2023-12-10T15:28:00.139Z,99877.16
2023-12-10T15:30:24.040Z,99882.22
2023-12-10T15:32:47.909Z,99879.88
2023-12-10T15:35:11.967Z,99882.44
2023-12-10T15:37:36.187Z,99888.53
2023-12-10T15:40:01.607Z,99895.16
2023-12-10T15:42:27.688Z,99885.19
2023-12-10T15:44:52.686Z,99884.19
2023-12-10T15:47:18.041Z,99896.66
2023-12-10T15:49:41.922Z,99888.97
2023-12-10T15:52:06.674Z,99896.13
2023-12-10T15:54:32.836Z,99891.84
2023-12-10T15:56:58.196Z,99895.81
2023-12-10T15:59:22.261Z,99899.72
2023-12-10T16:01:46.106Z,99903.13
2023-12-10T16:04:10.164Z,99900.69
2023-12-10T16:06:34.318Z,99897.97
2023-12-10T16:09:00.794Z,99903.63
2023-12-10T16:11:24.947Z,99903.50
2023-12-10T16:13:50.155Z,99902.97
2023-12-10T16:16:13.843Z,99899.03
2023-12-10T16:18:37.996Z,99906.78
2023-12-10T16:21:03.899Z,99908.47
2023-12-10T16:23:29.205Z,99910.47
2023-12-10T16:25:52.924Z,99900.75
2023-12-10T16:28:16.956Z,99902.53
2023-12-10T16:30:42.654Z,99900.34
2023-12-10T16:33:06.613Z,99908.63
2023-12-10T16:35:30.387Z,99906.63
2023-12-10T16:37:54.138Z,99908.97
2023-12-10T16:40:18.221Z,99909.69
2023-12-10T16:42:42.050Z,99912.44
2023-12-10T16:45:06.477Z,99913.59
2023-12-10T16:47:32.307Z,99914.47
2023-12-10T16:49:56.339Z,99916.59
2023-12-10T16:52:20.302Z,99920.38
2023-12-10T16:54:44.197Z,99933.09
2023-12-10T16:57:08.221Z,99934.63
2023-12-10T16:59:32.512Z,99937.69
2023-12-10T17:01:56.325Z,99935.13
2023-12-10T17:04:21.644Z,99936.56
2023-12-10T17:06:46.506Z,99938.88
2023-12-10T17:09:10.281Z,99943.81
2023-12-10T17:11:34.012Z,99930.75
2023-12-10T17:13:58.073Z,99942.66
2023-12-10T17:16:21.945Z,99943.38
2023-12-10T17:18:45.741Z,99942.66
2023-12-10T17:21:11.360Z,99953.22
2023-12-10T17:23:35.076Z,99940.75
2023-12-10T17:25:58.837Z,99953.47
2023-12-10T17:28:22.584Z,99943.69
2023-12-10T17:30:46.485Z,99961.22
2023-12-10T17:33:10.296Z,99954.13
2023-12-10T17:35:34.252Z,99950.38
2023-12-10T17:37:59.358Z,99956.34
2023-12-10T17:40:23.148Z,99949.63
2023-12-10T17:42:46.977Z,99942.34
2023-12-10T17:45:12.150Z,99936.06
2023-12-10T17:47:35.951Z,99941.31
2023-12-10T17:50:00.023Z,99934.22
2023-12-10T17:52:24.140Z,99943.50
2023-12-10T17:54:50.036Z,99939.19
2023-12-10T17:57:13.846Z,99941.47
2023-12-10T17:59:37.632Z,99941.53
2023-12-10T18:02:01.413Z,99936.25
2023-12-10T18:04:25.252Z,99939.94
2023-12-10T18:06:49.052Z,99938.72
2023-12-10T18:09:13.193Z,99946.38
2023-12-10T18:11:40.338Z,99943.59
2023-12-10T18:14:04.142Z,99930.97
2023-12-10T18:16:28.196Z,99933.25
2023-12-10T18:18:52.088Z,99926.44
2023-12-10T18:21:15.998Z,99928.47
2023-12-10T18:23:41.815Z,99930.56
2023-12-10T18:26:08.030Z,99932.13
2023-12-10T18:28:34.658Z,99922.75
2023-12-10T18:31:00.130Z,99919.63
2023-12-10T18:33:24.319Z,99914.47
2023-12-10T18:35:48.104Z,99911.06
2023-12-10T18:38:11.839Z,99905.44
2023-12-10T18:40:36.024Z,99908.53
2023-12-10T18:43:03.424Z,99903.97
2023-12-10T18:45:28.967Z,99907.88
2023-12-10T18:47:53.118Z,99908.78
2023-12-10T18:50:16.969Z,99897.56
2023-12-10T18:52:40.740Z,99900.44
2023-12-10T18:55:04.535Z,99903.94
2023-12-10T18:57:30.259Z,99889.59
2023-12-10T18:59:54.126Z,99896.50
2023-12-10T19:02:19.756Z,99890.81
2023-12-10T19:04:45.278Z,99888.09
2023-12-10T19:07:09.614Z,99878.72
2023-12-10T19:09:35.808Z,99885.81
2023-12-10T19:12:00.793Z,99880.09
2023-12-10T19:14:24.527Z,99873.44
2023-12-10T19:16:49.480Z,99866.53
2023-12-10T19:19:14.792Z,99866.53
2023-12-10T19:21:38.955Z,99860.81
2023-12-10T19:24:06.305Z,99871.16
2023-12-10T19:26:30.097Z,99864.59
2023-12-10T19:28:53.841Z,99861.72
2023-12-10T19:31:17.623Z,99852.63
2023-12-10T19:33:41.370Z,99857.56
2023-12-10T19:36:07.597Z,99854.25
2023-12-10T19:38:31.308Z,99856.16
2023-12-10T19:40:56.951Z,99853.25
2023-12-10T19:43:20.735Z,99853.88
2023-12-10T19:45:44.667Z,99845.41
2023-12-10T19:48:08.499Z,99838.97
2023-12-10T19:50:32.346Z,99834.22
2023-12-10T19:52:57.437Z,99835.44
2023-12-10T19:55:22.723Z,99831.59
2023-12-10T19:57:47.487Z,99837.03
2023-12-10T20:00:12.329Z,99828.63
2023-12-10T20:02:36.064Z,99826.44
2023-12-10T20:04:59.900Z,99831.16
2023-12-10T20:07:23.868Z,99822.88
2023-12-10T20:09:49.138Z,99819.59
2023-12-10T20:12:13.104Z,99826.41
2023-12-10T20:14:36.942Z,99818.28
2023-12-10T20:17:00.667Z,99821.91
2023-12-10T20:19:27.179Z,99819.88
2023-12-10T20:21:51.256Z,99807.00
2023-12-10T20:24:27.068Z,99796.38
2023-12-10T20:27:00.199Z,99801.44
2023-12-10T20:29:24.216Z,99794.22
2023-12-10T20:31:48.046Z,99790.69
2023-12-10T20:34:23.602Z,99777.47
2023-12-10T20:36:53.770Z,99770.53
2023-12-10T20:39:17.547Z,99767.88
2023-12-10T20:41:41.389Z,99763.63
2023-12-10T20:44:06.768Z,99758.81
2023-12-10T20:46:30.785Z,99760.50
2023-12-10T20:48:54.711Z,99763.63
2023-12-10T20:51:18.731Z,99751.78
2023-12-10T20:53:42.480Z,99744.94
2023-12-10T20:56:06.641Z,99746.84
2023-12-10T20:58:30.351Z,99739.94
2023-12-10T21:00:55.657Z,99746.66
2023-12-10T21:03:20.744Z,99725.97
2023-12-10T21:05:45.572Z,99723.94
2023-12-10T21:08:09.361Z,99716.91
2023-12-10T21:10:33.117Z,99717.88
2023-12-10T21:12:57.547Z,99716.84
2023-12-10T21:15:21.650Z,99723.38
2023-12-10T21:17:47.270Z,99716.03
2023-12-10T21:20:12.036Z,99717.63
2023-12-10T21:22:35.725Z,99709.56
2023-12-10T21:24:59.537Z,99700.50
2023-12-10T21:27:23.333Z,99700.97
2023-12-10T21:29:47.155Z,99709.00
2023-12-10T21:32:11.478Z,99692.25
2023-12-10T21:34:36.705Z,99690.09
2023-12-10T21:37:00.972Z,99694.50
2023-12-10T21:39:24.882Z,99688.81
2023-12-10T21:41:48.643Z,99686.91
2023-12-10T21:44:13.138Z,99671.16
2023-12-10T21:46:39.164Z,99668.13
2023-12-10T21:49:03.975Z,99655.03
2023-12-10T21:51:29.332Z,99643.56
2023-12-10T21:53:53.684Z,99639.31
2023-12-10T21:56:17.421Z,99641.97
2023-12-10T21:58:43.938Z,99641.97
2023-12-10T22:01:08.014Z,99648.00
2023-12-10T22:03:33.064Z,99648.53
2023-12-10T22:05:58.317Z,99648.72
2023-12-10T22:08:24.654Z,99640.53
2023-12-10T22:10:50.710Z,99634.78
2023-12-10T22:13:14.629Z,99625.06
2023-12-10T22:15:38.421Z,99612.09
2023-12-10T22:18:03.097Z,99612.63
2023-12-10T22:20:27.153Z,99601.66
2023-12-10T22:22:51.330Z,99604.19
2023-12-10T22:25:16.689Z,99602.75
2023-12-10T22:27:40.736Z,99614.84
2023-12-10T22:30:04.839Z,99604.91
2023-12-10T22:32:28.746Z,99610.19
2023-12-10T22:34:52.549Z,99598.41
2023-12-10T22:37:16.514Z,99600.53
2023-12-10T22:39:40.457Z,99596.16
2023-12-10T22:42:06.325Z,99605.28
2023-12-10T22:44:30.116Z,99597.56
2023-12-10T22:46:53.943Z,99597.78
2023-12-10T22:49:17.776Z,99595.28
2023-12-10T22:51:41.703Z,99590.22
2023-12-10T22:54:05.666Z,99590.00
2023-12-10T22:56:29.475Z,99588.69
2023-12-10T22:58:54.590Z,99575.56
2023-12-10T23:01:21.257Z,99578.00
2023-12-10T23:03:45.381Z,99576.47
2023-12-10T23:06:09.755Z,99576.56
2023-12-10T23:08:33.692Z,99570.53
2023-12-10T23:10:57.894Z,99562.44
2023-12-10T23:13:22.033Z,99568.38
2023-12-10T23:15:48.847Z,99564.44
2023-12-10T23:18:13.188Z,99563.41
2023-12-10T23:20:37.369Z,99555.78
2023-12-10T23:23:01.349Z,99555.81
2023-12-10T23:25:25.612Z,99553.81
2023-12-10T23:27:49.715Z,99549.53
2023-12-10T23:30:14.271Z,99542.91
2023-12-10T23:32:39.642Z,99532.25
2023-12-10T23:35:03.711Z,99524.56
2023-12-10T23:37:27.691Z,99526.03
2023-12-10T23:39:51.814Z,99518.25
2023-12-10T23:42:15.629Z,99517.31
2023-12-10T23:44:39.401Z,99514.63
2023-12-10T23:47:03.157Z,99505.72
2023-12-10T23:49:28.366Z,99494.34
2023-12-10T23:51:52.170Z,99488.94
2023-12-10T23:54:15.960Z,99482.50
2023-12-10T23:56:39.668Z,99477.22
2023-12-10T23:59:03.852Z,99468.34
